sensor_id;sensor_type;location;lat;lon;timestamp;temperature;humidity
19496;DHT22;9888;48.606;9.630;2023-04-22T00:00:59;8.20;99.90
19496;DHT22;9888;48.606;9.630;2023-04-22T00:03:46;8.20;99.90
19496;DHT22;9888;48.606;9.630;2023-04-22T00:06:13;8.10;99.90
19496;DHT22;9888;48.606;9.630;2023-04-22T00:08:41;8.10;99.90
19496;DHT22;9888;48.606;9.630;2023-04-22T00:11:08;8.10;99.90
19496;DHT22;9888;48.606;9.630;2023-04-22T00:13:36;8.10;99.90
19496;DHT22;9888;48.606;9.630;2023-04-22T00:16:04;8.20;99.90
19496;DHT22;9888;48.606;9.630;2023-04-22T00:18:33;8.20;99.90
19496;DHT22;9888;48.606;9.630;2023-04-22T00:21:02;8.20;99.90
19496;DHT22;9888;48.606;9.630;2023-04-22T00:23:29;8.20;99.90
19496;DHT22;9888;48.606;9.630;2023-04-22T00:25:56;8.20;99.90
19496;DHT22;9888;48.606;9.630;2023-04-22T00:28:24;8.30;99.90
19496;DHT22;9888;48.606;9.630;2023-04-22T00:30:52;8.30;99.90
19496;DHT22;9888;48.606;9.630;2023-04-22T00:33:19;8.20;99.90
19496;DHT22;9888;48.606;9.630;2023-04-22T00:35:56;8.30;99.90
19496;DHT22;9888;48.606;9.630;2023-04-22T00:38:24;8.30;99.90
19496;DHT22;9888;48.606;9.630;2023-04-22T00:40:51;8.20;99.90
19496;DHT22;9888;48.606;9.630;2023-04-22T00:43:18;8.20;99.90
19496;DHT22;9888;48.606;9.630;2023-04-22T00:45:47;8.20;99.90
19496;DHT22;9888;48.606;9.630;2023-04-22T00:48:16;8.10;99.90
19496;DHT22;9888;48.606;9.630;2023-04-22T00:50:43;8.10;99.90
19496;DHT22;9888;48.606;9.630;2023-04-22T00:53:10;8.10;99.90
19496;DHT22;9888;48.606;9.630;2023-04-22T00:55:39;8.10;99.90
19496;DHT22;9888;48.606;9.630;2023-04-22T00:58:07;8.10;99.90
19496;DHT22;9888;48.606;9.630;2023-04-22T01:00:35;8.00;99.90
19496;DHT22;9888;48.606;9.630;2023-04-22T01:03:03;8.00;99.90
19496;DHT22;9888;48.606;9.630;2023-04-22T01:05:35;8.10;99.90
19496;DHT22;9888;48.606;9.630;2023-04-22T01:08:03;8.00;99.90
19496;DHT22;9888;48.606;9.630;2023-04-22T01:10:30;8.00;99.90
19496;DHT22;9888;48.606;9.630;2023-04-22T01:12:57;8.00;99.90
19496;DHT22;9888;48.606;9.630;2023-04-22T01:15:25;7.90;99.90
19496;DHT22;9888;48.606;9.630;2023-04-22T01:17:54;7.90;99.90
19496;DHT22;9888;48.606;9.630;2023-04-22T01:20:23;7.90;99.90
19496;DHT22;9888;48.606;9.630;2023-04-22T01:22:55;7.90;99.90
19496;DHT22;9888;48.606;9.630;2023-04-22T01:25:27;8.00;99.90
19496;DHT22;9888;48.606;9.630;2023-04-22T01:27:55;8.00;99.90
19496;DHT22;9888;48.606;9.630;2023-04-22T01:30:23;8.00;99.90
19496;DHT22;9888;48.606;9.630;2023-04-22T01:32:51;7.90;99.90
19496;DHT22;9888;48.606;9.630;2023-04-22T01:35:19;7.90;99.90
19496;DHT22;9888;48.606;9.630;2023-04-22T01:37:47;8.00;99.90
19496;DHT22;9888;48.606;9.630;2023-04-22T01:40:15;7.90;99.90
19496;DHT22;9888;48.606;9.630;2023-04-22T01:42:45;7.90;99.90
19496;DHT22;9888;48.606;9.630;2023-04-22T01:45:12;7.90;99.90
19496;DHT22;9888;48.606;9.630;2023-04-22T01:47:42;8.00;99.90
19496;DHT22;9888;48.606;9.630;2023-04-22T01:50:12;8.00;99.90
19496;DHT22;9888;48.606;9.630;2023-04-22T01:52:40;7.90;99.90
19496;DHT22;9888;48.606;9.630;2023-04-22T01:55:08;8.00;99.90
19496;DHT22;9888;48.606;9.630;2023-04-22T01:57:35;8.00;99.90
19496;DHT22;9888;48.606;9.630;2023-04-22T02:00:03;8.00;99.90
19496;DHT22;9888;48.606;9.630;2023-04-22T02:02:30;7.90;99.90
19496;DHT22;9888;48.606;9.630;2023-04-22T02:04:58;7.90;99.90
19496;DHT22;9888;48.606;9.630;2023-04-22T02:07:25;7.90;99.90
19496;DHT22;9888;48.606;9.630;2023-04-22T02:09:52;8.00;99.90
19496;DHT22;9888;48.606;9.630;2023-04-22T02:12:20;7.90;99.90
19496;DHT22;9888;48.606;9.630;2023-04-22T02:14:47;8.00;99.90
19496;DHT22;9888;48.606;9.630;2023-04-22T02:17:15;8.00;99.90
19496;DHT22;9888;48.606;9.630;2023-04-22T02:19:43;8.00;99.90
19496;DHT22;9888;48.606;9.630;2023-04-22T02:22:10;8.00;99.90
19496;DHT22;9888;48.606;9.630;2023-04-22T02:24:38;8.10;99.90
19496;DHT22;9888;48.606;9.630;2023-04-22T02:27:05;8.30;99.90
19496;DHT22;9888;48.606;9.630;2023-04-22T02:29:34;8.50;99.90
19496;DHT22;9888;48.606;9.630;2023-04-22T02:32:01;8.60;99.90
19496;DHT22;9888;48.606;9.630;2023-04-22T02:34:29;8.70;99.90
19496;DHT22;9888;48.606;9.630;2023-04-22T02:36:57;8.80;99.90
19496;DHT22;9888;48.606;9.630;2023-04-22T02:39:25;8.90;99.90
19496;DHT22;9888;48.606;9.630;2023-04-22T02:41:52;8.90;99.90
19496;DHT22;9888;48.606;9.630;2023-04-22T02:44:19;9.00;99.90
19496;DHT22;9888;48.606;9.630;2023-04-22T02:46:47;9.10;99.90
19496;DHT22;9888;48.606;9.630;2023-04-22T02:49:14;9.30;99.90
19496;DHT22;9888;48.606;9.630;2023-04-22T02:51:42;9.20;99.90
19496;DHT22;9888;48.606;9.630;2023-04-22T02:54:09;9.20;99.90
19496;DHT22;9888;48.606;9.630;2023-04-22T02:56:36;9.20;99.90
19496;DHT22;9888;48.606;9.630;2023-04-22T02:59:05;9.30;99.90
19496;DHT22;9888;48.606;9.630;2023-04-22T03:01:33;9.50;99.90
19496;DHT22;9888;48.606;9.630;2023-04-22T03:04:02;9.50;99.90
19496;DHT22;9888;48.606;9.630;2023-04-22T03:06:30;9.50;99.90
19496;DHT22;9888;48.606;9.630;2023-04-22T03:08:58;9.50;99.90
19496;DHT22;9888;48.606;9.630;2023-04-22T03:11:25;9.60;99.90
19496;DHT22;9888;48.606;9.630;2023-04-22T03:13:53;9.60;99.90
19496;DHT22;9888;48.606;9.630;2023-04-22T03:16:22;9.60;99.90
19496;DHT22;9888;48.606;9.630;2023-04-22T03:18:50;9.60;99.90
19496;DHT22;9888;48.606;9.630;2023-04-22T03:21:18;9.60;99.90
19496;DHT22;9888;48.606;9.630;2023-04-22T03:23:46;9.60;99.90
19496;DHT22;9888;48.606;9.630;2023-04-22T03:26:13;9.60;99.90
19496;DHT22;9888;48.606;9.630;2023-04-22T03:28:41;9.60;99.90
19496;DHT22;9888;48.606;9.630;2023-04-22T03:31:08;9.50;99.90
19496;DHT22;9888;48.606;9.630;2023-04-22T03:33:36;9.40;99.90
19496;DHT22;9888;48.606;9.630;2023-04-22T03:36:05;9.30;99.90
19496;DHT22;9888;48.606;9.630;2023-04-22T03:38:33;9.40;99.90
19496;DHT22;9888;48.606;9.630;2023-04-22T03:41:00;9.30;99.90
19496;DHT22;9888;48.606;9.630;2023-04-22T03:43:28;9.20;99.90
19496;DHT22;9888;48.606;9.630;2023-04-22T03:45:57;8.90;99.90
19496;DHT22;9888;48.606;9.630;2023-04-22T03:48:25;8.70;99.90
19496;DHT22;9888;48.606;9.630;2023-04-22T03:50:54;8.50;99.90
19496;DHT22;9888;48.606;9.630;2023-04-22T03:53:22;8.30;99.90
19496;DHT22;9888;48.606;9.630;2023-04-22T03:55:49;8.20;99.90
19496;DHT22;9888;48.606;9.630;2023-04-22T03:58:18;8.10;99.90
19496;DHT22;9888;48.606;9.630;2023-04-22T04:00:45;7.90;99.90
19496;DHT22;9888;48.606;9.630;2023-04-22T04:03:12;7.70;99.90
19496;DHT22;9888;48.606;9.630;2023-04-22T04:05:39;7.60;99.90
19496;DHT22;9888;48.606;9.630;2023-04-22T04:08:06;7.60;99.90
19496;DHT22;9888;48.606;9.630;2023-04-22T04:10:34;7.50;99.90
19496;DHT22;9888;48.606;9.630;2023-04-22T04:13:02;7.40;99.90
19496;DHT22;9888;48.606;9.630;2023-04-22T04:15:29;7.40;99.90
19496;DHT22;9888;48.606;9.630;2023-04-22T04:17:58;7.30;99.90
19496;DHT22;9888;48.606;9.630;2023-04-22T04:20:26;7.30;99.90
19496;DHT22;9888;48.606;9.630;2023-04-22T04:22:53;7.30;99.90
19496;DHT22;9888;48.606;9.630;2023-04-22T04:25:21;7.20;99.90
19496;DHT22;9888;48.606;9.630;2023-04-22T04:27:48;7.20;99.90
19496;DHT22;9888;48.606;9.630;2023-04-22T04:30:17;7.20;99.90
19496;DHT22;9888;48.606;9.630;2023-04-22T04:32:46;7.20;99.90
19496;DHT22;9888;48.606;9.630;2023-04-22T04:35:13;7.20;99.90
19496;DHT22;9888;48.606;9.630;2023-04-22T04:37:44;7.20;99.90
19496;DHT22;9888;48.606;9.630;2023-04-22T04:40:12;7.20;99.90
19496;DHT22;9888;48.606;9.630;2023-04-22T04:42:39;7.30;99.90
19496;DHT22;9888;48.606;9.630;2023-04-22T04:45:08;7.20;99.90
19496;DHT22;9888;48.606;9.630;2023-04-22T04:47:35;7.30;99.90
19496;DHT22;9888;48.606;9.630;2023-04-22T04:50:02;7.30;99.90
19496;DHT22;9888;48.606;9.630;2023-04-22T04:52:29;7.30;99.90
19496;DHT22;9888;48.606;9.630;2023-04-22T04:54:57;7.30;99.90
19496;DHT22;9888;48.606;9.630;2023-04-22T04:57:25;7.30;99.90
19496;DHT22;9888;48.606;9.630;2023-04-22T04:59:52;7.30;99.90
19496;DHT22;9888;48.606;9.630;2023-04-22T05:02:19;7.40;99.90
19496;DHT22;9888;48.606;9.630;2023-04-22T05:04:47;7.40;99.90
19496;DHT22;9888;48.606;9.630;2023-04-22T05:07:14;7.40;99.90
19496;DHT22;9888;48.606;9.630;2023-04-22T05:09:42;7.40;99.90
19496;DHT22;9888;48.606;9.630;2023-04-22T05:12:09;7.50;99.90
19496;DHT22;9888;48.606;9.630;2023-04-22T05:14:36;7.50;99.90
19496;DHT22;9888;48.606;9.630;2023-04-22T05:17:04;7.60;99.90
19496;DHT22;9888;48.606;9.630;2023-04-22T05:19:31;7.70;99.90
19496;DHT22;9888;48.606;9.630;2023-04-22T05:21:59;7.70;99.90
19496;DHT22;9888;48.606;9.630;2023-04-22T05:24:27;7.70;99.90
19496;DHT22;9888;48.606;9.630;2023-04-22T05:26:54;7.80;99.90
19496;DHT22;9888;48.606;9.630;2023-04-22T05:29:23;7.80;99.90
19496;DHT22;9888;48.606;9.630;2023-04-22T05:31:50;7.90;99.90
19496;DHT22;9888;48.606;9.630;2023-04-22T05:34:19;8.00;99.90
19496;DHT22;9888;48.606;9.630;2023-04-22T05:36:54;8.10;99.90
19496;DHT22;9888;48.606;9.630;2023-04-22T05:39:22;8.30;99.90
19496;DHT22;9888;48.606;9.630;2023-04-22T05:41:49;8.40;99.90
19496;DHT22;9888;48.606;9.630;2023-04-22T05:44:19;8.40;99.90
19496;DHT22;9888;48.606;9.630;2023-04-22T05:46:46;8.50;99.90
19496;DHT22;9888;48.606;9.630;2023-04-22T05:49:13;8.60;99.90
19496;DHT22;9888;48.606;9.630;2023-04-22T05:51:41;8.60;99.90
19496;DHT22;9888;48.606;9.630;2023-04-22T05:54:08;8.70;99.90
19496;DHT22;9888;48.606;9.630;2023-04-22T05:56:35;8.70;99.90
19496;DHT22;9888;48.606;9.630;2023-04-22T05:59:02;8.80;99.90
19496;DHT22;9888;48.606;9.630;2023-04-22T06:01:29;8.90;99.90
19496;DHT22;9888;48.606;9.630;2023-04-22T06:03:57;9.10;99.90
19496;DHT22;9888;48.606;9.630;2023-04-22T06:06:24;9.20;99.90
19496;DHT22;9888;48.606;9.630;2023-04-22T06:08:53;9.30;99.90
19496;DHT22;9888;48.606;9.630;2023-04-22T06:11:20;9.30;99.90
19496;DHT22;9888;48.606;9.630;2023-04-22T06:13:48;9.40;99.90
19496;DHT22;9888;48.606;9.630;2023-04-22T06:16:15;9.50;99.90
19496;DHT22;9888;48.606;9.630;2023-04-22T06:18:42;9.50;99.90
19496;DHT22;9888;48.606;9.630;2023-04-22T06:21:10;9.60;99.90
19496;DHT22;9888;48.606;9.630;2023-04-22T06:23:38;9.70;99.90
19496;DHT22;9888;48.606;9.630;2023-04-22T06:26:06;9.80;99.90
19496;DHT22;9888;48.606;9.630;2023-04-22T06:28:34;9.90;99.90
19496;DHT22;9888;48.606;9.630;2023-04-22T06:34:39;10.30;99.90
19496;DHT22;9888;48.606;9.630;2023-04-22T06:37:07;10.60;99.90
19496;DHT22;9888;48.606;9.630;2023-04-22T06:39:34;10.90;99.90
19496;DHT22;9888;48.606;9.630;2023-04-22T06:42:02;11.20;99.90
19496;DHT22;9888;48.606;9.630;2023-04-22T06:44:31;11.50;99.90
19496;DHT22;9888;48.606;9.630;2023-04-22T06:46:58;11.90;99.90
19496;DHT22;9888;48.606;9.630;2023-04-22T06:49:31;12.20;99.90
19496;DHT22;9888;48.606;9.630;2023-04-22T06:51:58;12.40;99.90
19496;DHT22;9888;48.606;9.630;2023-04-22T06:54:26;12.70;99.90
19496;DHT22;9888;48.606;9.630;2023-04-22T06:56:54;13.10;99.90
19496;DHT22;9888;48.606;9.630;2023-04-22T06:59:23;13.50;99.90
19496;DHT22;9888;48.606;9.630;2023-04-22T07:01:52;13.80;99.90
19496;DHT22;9888;48.606;9.630;2023-04-22T07:04:19;14.20;99.90
19496;DHT22;9888;48.606;9.630;2023-04-22T07:06:50;14.30;99.90
19496;DHT22;9888;48.606;9.630;2023-04-22T07:09:18;14.50;99.90
19496;DHT22;9888;48.606;9.630;2023-04-22T07:11:46;14.70;99.90
19496;DHT22;9888;48.606;9.630;2023-04-22T07:14:14;15.00;99.90
19496;DHT22;9888;48.606;9.630;2023-04-22T07:16:42;15.20;99.90
19496;DHT22;9888;48.606;9.630;2023-04-22T07:19:10;15.40;99.90
19496;DHT22;9888;48.606;9.630;2023-04-22T07:21:39;15.60;99.90
19496;DHT22;9888;48.606;9.630;2023-04-22T07:24:07;15.70;99.90
19496;DHT22;9888;48.606;9.630;2023-04-22T07:26:41;15.80;99.90
19496;DHT22;9888;48.606;9.630;2023-04-22T07:29:09;16.00;99.90
19496;DHT22;9888;48.606;9.630;2023-04-22T07:31:38;16.10;99.90
19496;DHT22;9888;48.606;9.630;2023-04-22T07:34:05;16.30;99.90
19496;DHT22;9888;48.606;9.630;2023-04-22T07:36:33;16.40;99.90
19496;DHT22;9888;48.606;9.630;2023-04-22T07:39:02;16.50;99.90
19496;DHT22;9888;48.606;9.630;2023-04-22T07:41:30;16.70;99.90
19496;DHT22;9888;48.606;9.630;2023-04-22T07:43:58;16.90;99.90
19496;DHT22;9888;48.606;9.630;2023-04-22T07:46:25;17.10;99.90
19496;DHT22;9888;48.606;9.630;2023-04-22T07:48:56;17.20;99.90
19496;DHT22;9888;48.606;9.630;2023-04-22T07:51:24;17.30;99.90
19496;DHT22;9888;48.606;9.630;2023-04-22T07:53:52;17.40;99.90
19496;DHT22;9888;48.606;9.630;2023-04-22T07:56:19;17.50;99.90
19496;DHT22;9888;48.606;9.630;2023-04-22T07:58:48;17.60;99.90
19496;DHT22;9888;48.606;9.630;2023-04-22T08:01:16;17.70;99.90
19496;DHT22;9888;48.606;9.630;2023-04-22T08:03:44;17.80;99.90
19496;DHT22;9888;48.606;9.630;2023-04-22T08:06:11;18.00;99.90
19496;DHT22;9888;48.606;9.630;2023-04-22T08:08:41;18.10;99.90
19496;DHT22;9888;48.606;9.630;2023-04-22T08:11:10;18.30;99.90
19496;DHT22;9888;48.606;9.630;2023-04-22T08:13:38;18.40;99.90
19496;DHT22;9888;48.606;9.630;2023-04-22T08:16:06;18.50;99.90
19496;DHT22;9888;48.606;9.630;2023-04-22T08:18:33;18.70;99.90
19496;DHT22;9888;48.606;9.630;2023-04-22T08:21:04;18.80;99.90
19496;DHT22;9888;48.606;9.630;2023-04-22T08:23:33;18.90;99.90
19496;DHT22;9888;48.606;9.630;2023-04-22T08:26:03;19.20;99.90
19496;DHT22;9888;48.606;9.630;2023-04-22T08:28:30;19.60;99.90
19496;DHT22;9888;48.606;9.630;2023-04-22T08:31:02;19.90;99.90
19496;DHT22;9888;48.606;9.630;2023-04-22T08:33:35;20.20;99.90
19496;DHT22;9888;48.606;9.630;2023-04-22T08:36:03;20.30;99.90
19496;DHT22;9888;48.606;9.630;2023-04-22T08:38:33;20.50;99.90
19496;DHT22;9888;48.606;9.630;2023-04-22T08:41:03;20.60;99.90
19496;DHT22;9888;48.606;9.630;2023-04-22T08:47:00;20.80;99.90
19496;DHT22;9888;48.606;9.630;2023-04-22T08:49:31;21.00;99.90
19496;DHT22;9888;48.606;9.630;2023-04-22T08:52:02;21.10;99.90
19496;DHT22;9888;48.606;9.630;2023-04-22T08:54:35;21.20;99.90
19496;DHT22;9888;48.606;9.630;2023-04-22T08:57:15;21.30;99.90
19496;DHT22;9888;48.606;9.630;2023-04-22T08:59:48;21.40;99.90
19496;DHT22;9888;48.606;9.630;2023-04-22T09:02:20;21.60;99.90
19496;DHT22;9888;48.606;9.630;2023-04-22T09:04:51;21.50;99.90
19496;DHT22;9888;48.606;9.630;2023-04-22T09:07:24;21.40;99.90
19496;DHT22;9888;48.606;9.630;2023-04-22T09:09:57;21.30;99.90
19496;DHT22;9888;48.606;9.630;2023-04-22T09:12:27;21.30;99.90
19496;DHT22;9888;48.606;9.630;2023-04-22T09:14:55;21.40;99.90
19496;DHT22;9888;48.606;9.630;2023-04-22T09:17:35;21.30;99.90
19496;DHT22;9888;48.606;9.630;2023-04-22T09:20:06;21.30;99.90
19496;DHT22;9888;48.606;9.630;2023-04-22T09:22:43;21.20;99.90
19496;DHT22;9888;48.606;9.630;2023-04-22T09:25:18;21.20;99.90
19496;DHT22;9888;48.606;9.630;2023-04-22T09:30:18;21.30;99.90
19496;DHT22;9888;48.606;9.630;2023-04-22T09:32:56;21.30;99.90
19496;DHT22;9888;48.606;9.630;2023-04-22T09:35:31;21.50;99.90
19496;DHT22;9888;48.606;9.630;2023-04-22T09:38:21;21.80;99.90
19496;DHT22;9888;48.606;9.630;2023-04-22T09:40:52;22.00;99.90
19496;DHT22;9888;48.606;9.630;2023-04-22T09:43:24;22.40;99.90
19496;DHT22;9888;48.606;9.630;2023-04-22T09:45:52;22.70;99.90
19496;DHT22;9888;48.606;9.630;2023-04-22T09:48:28;22.70;99.90
19496;DHT22;9888;48.606;9.630;2023-04-22T09:50:55;22.80;99.90
19496;DHT22;9888;48.606;9.630;2023-04-22T09:53:26;23.00;99.90
19496;DHT22;9888;48.606;9.630;2023-04-22T09:56:08;23.00;99.90
19496;DHT22;9888;48.606;9.630;2023-04-22T09:58:44;23.10;99.90
19496;DHT22;9888;48.606;9.630;2023-04-22T10:01:19;23.20;99.90
19496;DHT22;9888;48.606;9.630;2023-04-22T10:03:50;23.30;99.90
19496;DHT22;9888;48.606;9.630;2023-04-22T10:06:24;23.50;99.90
19496;DHT22;9888;48.606;9.630;2023-04-22T10:09:06;23.90;99.90
19496;DHT22;9888;48.606;9.630;2023-04-22T10:11:41;23.90;99.90
19496;DHT22;9888;48.606;9.630;2023-04-22T10:14:10;23.90;99.90
19496;DHT22;9888;48.606;9.630;2023-04-22T10:16:46;24.20;99.90
19496;DHT22;9888;48.606;9.630;2023-04-22T10:19:27;24.30;99.90
19496;DHT22;9888;48.606;9.630;2023-04-22T10:22:00;24.20;99.90
19496;DHT22;9888;48.606;9.630;2023-04-22T10:24:34;24.30;99.90
19496;DHT22;9888;48.606;9.630;2023-04-22T10:27:04;24.60;99.90
19496;DHT22;9888;48.606;9.630;2023-04-22T10:29:40;24.70;99.90
19496;DHT22;9888;48.606;9.630;2023-04-22T10:35:05;24.50;99.90
19496;DHT22;9888;48.606;9.630;2023-04-22T10:37:36;24.50;99.90
19496;DHT22;9888;48.606;9.630;2023-04-22T10:40:15;24.30;99.90
19496;DHT22;9888;48.606;9.630;2023-04-22T10:42:52;24.30;99.90
19496;DHT22;9888;48.606;9.630;2023-04-22T10:45:24;24.40;99.90
19496;DHT22;9888;48.606;9.630;2023-04-22T10:47:54;24.60;99.90
19496;DHT22;9888;48.606;9.630;2023-04-22T10:50:25;24.50;99.80
19496;DHT22;9888;48.606;9.630;2023-04-22T10:53:33;24.70;99.90
19496;DHT22;9888;48.606;9.630;2023-04-22T10:55:52;24.90;99.90
19496;DHT22;9888;48.606;9.630;2023-04-22T10:58:22;24.90;99.10
19496;DHT22;9888;48.606;9.630;2023-04-22T11:00:52;24.90;98.30
19496;DHT22;9888;48.606;9.630;2023-04-22T11:03:27;24.90;98.70
19496;DHT22;9888;48.606;9.630;2023-04-22T11:06:14;24.90;98.30
19496;DHT22;9888;48.606;9.630;2023-04-22T11:08:51;25.20;98.40
19496;DHT22;9888;48.606;9.630;2023-04-22T11:11:36;25.20;97.60
19496;DHT22;9888;48.606;9.630;2023-04-22T11:14:04;25.40;96.70
19496;DHT22;9888;48.606;9.630;2023-04-22T11:16:32;25.70;97.60
19496;DHT22;9888;48.606;9.630;2023-04-22T11:19:00;25.90;96.00
19496;DHT22;9888;48.606;9.630;2023-04-22T11:21:28;26.00;94.60
19496;DHT22;9888;48.606;9.630;2023-04-22T11:23:58;26.20;93.70
19496;DHT22;9888;48.606;9.630;2023-04-22T11:26:36;26.30;93.70
19496;DHT22;9888;48.606;9.630;2023-04-22T11:29:02;26.70;93.90
19496;DHT22;9888;48.606;9.630;2023-04-22T11:32:04;27.70;93.80
19496;DHT22;9888;48.606;9.630;2023-04-22T11:34:32;28.50;91.30
19496;DHT22;9888;48.606;9.630;2023-04-22T11:37:21;29.40;92.50
19496;DHT22;9888;48.606;9.630;2023-04-22T11:39:50;30.60;92.00
19496;DHT22;9888;48.606;9.630;2023-04-22T11:42:29;31.60;89.50
19496;DHT22;9888;48.606;9.630;2023-04-22T11:44:57;32.10;85.10
19496;DHT22;9888;48.606;9.630;2023-04-22T11:47:29;30.70;83.80
19496;DHT22;9888;48.606;9.630;2023-04-22T11:50:03;28.90;84.00
19496;DHT22;9888;48.606;9.630;2023-04-22T11:56:03;27.50;85.80
19496;DHT22;9888;48.606;9.630;2023-04-22T11:58:33;26.70;86.20
19496;DHT22;9888;48.606;9.630;2023-04-22T12:01:12;26.40;87.30
19496;DHT22;9888;48.606;9.630;2023-04-22T12:03:41;27.00;91.10
19496;DHT22;9888;48.606;9.630;2023-04-22T12:06:09;26.20;90.50
19496;DHT22;9888;48.606;9.630;2023-04-22T12:09:03;25.90;92.10
19496;DHT22;9888;48.606;9.630;2023-04-22T12:11:34;25.70;91.30
19496;DHT22;9888;48.606;9.630;2023-04-22T12:14:07;25.80;91.50
19496;DHT22;9888;48.606;9.630;2023-04-22T12:16:41;25.80;91.90
19496;DHT22;9888;48.606;9.630;2023-04-22T12:19:10;25.70;92.70
19496;DHT22;9888;48.606;9.630;2023-04-22T12:21:57;25.90;91.30
19496;DHT22;9888;48.606;9.630;2023-04-22T12:24:29;26.00;92.20
19496;DHT22;9888;48.606;9.630;2023-04-22T12:26:57;25.30;92.10
19496;DHT22;9888;48.606;9.630;2023-04-22T12:29:32;24.20;90.80
19496;DHT22;9888;48.606;9.630;2023-04-22T12:32:36;23.80;92.70
19496;DHT22;9888;48.606;9.630;2023-04-22T12:35:18;23.80;93.00
19496;DHT22;9888;48.606;9.630;2023-04-22T12:37:59;23.80;95.60
19496;DHT22;9888;48.606;9.630;2023-04-22T12:40:28;23.80;96.20
19496;DHT22;9888;48.606;9.630;2023-04-22T12:42:55;23.70;96.10
19496;DHT22;9888;48.606;9.630;2023-04-22T12:45:23;23.70;95.10
19496;DHT22;9888;48.606;9.630;2023-04-22T12:47:53;23.70;95.20
19496;DHT22;9888;48.606;9.630;2023-04-22T12:50:23;23.70;94.90
19496;DHT22;9888;48.606;9.630;2023-04-22T12:52:50;23.60;95.20
19496;DHT22;9888;48.606;9.630;2023-04-22T12:55:17;23.20;95.40
19496;DHT22;9888;48.606;9.630;2023-04-22T12:57:49;23.20;95.30
19496;DHT22;9888;48.606;9.630;2023-04-22T13:00:28;23.20;95.00
19496;DHT22;9888;48.606;9.630;2023-04-22T13:02:56;23.00;94.50
19496;DHT22;9888;48.606;9.630;2023-04-22T13:05:24;22.90;95.00
19496;DHT22;9888;48.606;9.630;2023-04-22T13:07:53;23.20;94.40
19496;DHT22;9888;48.606;9.630;2023-04-22T13:10:21;23.90;95.70
19496;DHT22;9888;48.606;9.630;2023-04-22T13:12:49;25.50;95.70
19496;DHT22;9888;48.606;9.630;2023-04-22T13:15:17;26.80;94.80
19496;DHT22;9888;48.606;9.630;2023-04-22T13:17:45;27.30;92.50
19496;DHT22;9888;48.606;9.630;2023-04-22T13:20:13;27.80;93.00
19496;DHT22;9888;48.606;9.630;2023-04-22T13:26:05;27.00;92.30
19496;DHT22;9888;48.606;9.630;2023-04-22T13:28:48;25.80;90.70
19496;DHT22;9888;48.606;9.630;2023-04-22T13:31:22;25.10;90.60
19496;DHT22;9888;48.606;9.630;2023-04-22T13:33:49;24.70;92.50
19496;DHT22;9888;48.606;9.630;2023-04-22T13:36:16;24.30;94.50
19496;DHT22;9888;48.606;9.630;2023-04-22T13:38:44;23.80;95.20
19496;DHT22;9888;48.606;9.630;2023-04-22T13:41:12;23.50;95.40
19496;DHT22;9888;48.606;9.630;2023-04-22T13:43:40;23.20;93.90
19496;DHT22;9888;48.606;9.630;2023-04-22T13:46:10;22.80;94.70
19496;DHT22;9888;48.606;9.630;2023-04-22T13:48:38;22.50;94.10
19496;DHT22;9888;48.606;9.630;2023-04-22T13:54:29;22.30;95.50
19496;DHT22;9888;48.606;9.630;2023-04-22T13:56:57;22.30;94.00
19496;DHT22;9888;48.606;9.630;2023-04-22T13:59:25;22.30;96.80
19496;DHT22;9888;48.606;9.630;2023-04-22T14:01:52;22.40;95.30
19496;DHT22;9888;48.606;9.630;2023-04-22T14:04:19;22.40;95.50
19496;DHT22;9888;48.606;9.630;2023-04-22T14:06:47;22.30;95.60
19496;DHT22;9888;48.606;9.630;2023-04-22T14:12:36;21.70;96.20
19496;DHT22;9888;48.606;9.630;2023-04-22T14:15:25;21.40;96.20
19496;DHT22;9888;48.606;9.630;2023-04-22T14:18:05;21.40;97.50
19496;DHT22;9888;48.606;9.630;2023-04-22T14:20:32;21.00;94.90
19496;DHT22;9888;48.606;9.630;2023-04-22T14:23:06;20.70;96.60
19496;DHT22;9888;48.606;9.630;2023-04-22T14:25:53;20.40;98.20
19496;DHT22;9888;48.606;9.630;2023-04-22T14:28:23;20.10;95.40
19496;DHT22;9888;48.606;9.630;2023-04-22T14:30:53;19.80;95.20
19496;DHT22;9888;48.606;9.630;2023-04-22T14:33:38;19.60;95.40
19496;DHT22;9888;48.606;9.630;2023-04-22T14:36:08;19.50;99.90
19496;DHT22;9888;48.606;9.630;2023-04-22T14:38:40;19.30;99.50
19496;DHT22;9888;48.606;9.630;2023-04-22T14:41:07;19.20;99.90
19496;DHT22;9888;48.606;9.630;2023-04-22T14:43:43;19.00;99.90
19496;DHT22;9888;48.606;9.630;2023-04-22T14:46:22;18.80;99.90
19496;DHT22;9888;48.606;9.630;2023-04-22T14:48:50;18.50;99.90
19496;DHT22;9888;48.606;9.630;2023-04-22T14:51:19;18.20;99.90
19496;DHT22;9888;48.606;9.630;2023-04-22T14:53:46;17.90;99.90
19496;DHT22;9888;48.606;9.630;2023-04-22T14:56:13;17.80;99.90
19496;DHT22;9888;48.606;9.630;2023-04-22T14:58:41;17.60;99.90
19496;DHT22;9888;48.606;9.630;2023-04-22T15:01:09;17.50;99.90
19496;DHT22;9888;48.606;9.630;2023-04-22T15:03:43;17.40;99.90
19496;DHT22;9888;48.606;9.630;2023-04-22T15:09:47;17.40;99.90
19496;DHT22;9888;48.606;9.630;2023-04-22T15:12:15;17.30;99.90
19496;DHT22;9888;48.606;9.630;2023-04-22T15:14:45;17.20;99.90
19496;DHT22;9888;48.606;9.630;2023-04-22T15:17:13;17.20;99.90
19496;DHT22;9888;48.606;9.630;2023-04-22T15:19:40;17.10;99.90
19496;DHT22;9888;48.606;9.630;2023-04-22T15:22:07;17.10;99.90
19496;DHT22;9888;48.606;9.630;2023-04-22T15:27:49;16.90;99.90
19496;DHT22;9888;48.606;9.630;2023-04-22T15:30:28;17.00;99.90
19496;DHT22;9888;48.606;9.630;2023-04-22T15:32:59;17.20;99.90
19496;DHT22;9888;48.606;9.630;2023-04-22T15:35:27;17.30;99.90
19496;DHT22;9888;48.606;9.630;2023-04-22T15:37:57;17.40;99.90
19496;DHT22;9888;48.606;9.630;2023-04-22T15:40:26;17.60;99.90
19496;DHT22;9888;48.606;9.630;2023-04-22T15:43:06;17.70;99.90
19496;DHT22;9888;48.606;9.630;2023-04-22T15:45:37;17.80;99.90
19496;DHT22;9888;48.606;9.630;2023-04-22T15:48:04;17.80;99.90
19496;DHT22;9888;48.606;9.630;2023-04-22T15:57:09;18.10;99.90
19496;DHT22;9888;48.606;9.630;2023-04-22T16:06:20;18.10;99.90
19496;DHT22;9888;48.606;9.630;2023-04-22T16:08:58;18.10;99.90
19496;DHT22;9888;48.606;9.630;2023-04-22T16:11:40;18.00;99.90
19496;DHT22;9888;48.606;9.630;2023-04-22T16:14:10;18.00;99.90
19496;DHT22;9888;48.606;9.630;2023-04-22T16:16:39;18.00;99.90
19496;DHT22;9888;48.606;9.630;2023-04-22T16:19:07;18.00;99.90
19496;DHT22;9888;48.606;9.630;2023-04-22T16:21:39;18.00;99.90
19496;DHT22;9888;48.606;9.630;2023-04-22T16:24:12;18.00;99.90
19496;DHT22;9888;48.606;9.630;2023-04-22T16:26:50;17.90;99.90
19496;DHT22;9888;48.606;9.630;2023-04-22T16:29:34;18.00;99.90
19496;DHT22;9888;48.606;9.630;2023-04-22T16:32:05;17.90;99.90
19496;DHT22;9888;48.606;9.630;2023-04-22T16:34:36;17.70;99.90
19496;DHT22;9888;48.606;9.630;2023-04-22T16:37:04;17.50;99.90
19496;DHT22;9888;48.606;9.630;2023-04-22T16:39:31;17.50;99.90
19496;DHT22;9888;48.606;9.630;2023-04-22T16:41:58;17.50;99.90
19496;DHT22;9888;48.606;9.630;2023-04-22T16:47:43;17.50;99.90
19496;DHT22;9888;48.606;9.630;2023-04-22T16:50:12;17.50;99.90
19496;DHT22;9888;48.606;9.630;2023-04-22T16:52:45;17.50;99.90
19496;DHT22;9888;48.606;9.630;2023-04-22T16:55:16;17.40;99.90
19496;DHT22;9888;48.606;9.630;2023-04-22T16:57:44;17.30;99.90
19496;DHT22;9888;48.606;9.630;2023-04-22T17:00:16;17.30;99.90